createdAt,value
2017-07-11T00:00:02.353Z,88.25
2017-07-11T00:00:42.957Z,88.45
2017-07-11T00:01:23.512Z,88.45
2017-07-11T00:02:04.086Z,88.35
2017-07-11T00:02:44.689Z,88.06
2017-07-11T00:03:25.262Z,87.87
2017-07-11T00:04:05.863Z,87.87
2017-07-11T00:04:46.443Z,88.06
2017-07-11T00:05:27.041Z,88.45
2017-07-11T00:06:07.622Z,89.02
2017-07-11T00:06:48.202Z,89.02
2017-07-11T00:07:28.782Z,88.93
2017-07-11T00:08:09.354Z,89.22
2017-07-11T00:08:49.979Z,88.35
2017-07-11T00:09:30.555Z,88.35
2017-07-11T00:10:11.159Z,88.35
2017-07-11T00:10:51.767Z,88.54
2017-07-11T00:11:32.368Z,88.54
2017-07-11T00:12:12.939Z,88.73
2017-07-11T00:12:53.685Z,88.73
2017-07-11T00:13:34.271Z,88.73
2017-07-11T00:14:14.874Z,88.73
2017-07-11T00:14:55.436Z,88.73
2017-07-11T00:15:36.042Z,88.35
2017-07-11T00:16:16.626Z,88.06
2017-07-11T00:16:57.223Z,88.35
2017-07-11T00:17:37.789Z,88.21
2017-07-11T00:18:18.356Z,88.31
2017-07-11T00:18:58.936Z,87.87
2017-07-11T00:19:39.516Z,87.96
2017-07-11T00:20:20.095Z,88.02
2017-07-11T00:21:00.667Z,88.11
2017-07-11T00:21:41.253Z,88.02
2017-07-11T00:22:21.857Z,88.21
2017-07-11T00:23:02.432Z,88.49
2017-07-11T00:23:43.012Z,88.59
2017-07-11T00:24:23.573Z,88.11
2017-07-11T00:25:04.133Z,88.69
2017-07-11T00:25:44.744Z,88.98
2017-07-11T00:26:25.318Z,88.4
2017-07-11T00:27:05.890Z,88.49
2017-07-11T00:27:46.463Z,88.11
2017-07-11T00:28:27.029Z,88.4
2017-07-11T00:29:07.647Z,88.49
2017-07-11T00:29:48.167Z,88.31
2017-07-11T00:30:28.733Z,88.59
2017-07-11T00:31:09.400Z,88.02
2017-07-11T00:31:49.975Z,88.21
2017-07-11T00:32:37.048Z,88.02
2017-07-11T00:33:17.636Z,88.21
2017-07-11T00:33:58.202Z,88.31
2017-07-11T00:34:38.834Z,88.31
2017-07-11T00:35:19.391Z,88.88
2017-07-11T00:35:59.977Z,89.07
2017-07-11T00:36:40.591Z,88.98
2017-07-11T00:37:21.146Z,89.17
2017-07-11T00:38:01.710Z,88.69
2017-07-11T00:38:42.284Z,88.98
2017-07-11T00:39:22.846Z,89.46
2017-07-11T00:40:03.438Z,89.36
2017-07-11T00:40:44.018Z,89.36
2017-07-11T00:41:24.589Z,89.75
2017-07-11T00:42:05.183Z,89.17
2017-07-11T00:42:45.744Z,89.36
2017-07-11T00:43:26.331Z,88.98
2017-07-11T00:44:06.920Z,89.17
2017-07-11T00:44:47.486Z,89.17
2017-07-11T00:45:28.074Z,89.36
2017-07-11T00:46:08.648Z,89.46
2017-07-11T00:46:49.232Z,89.07
2017-07-11T00:47:29.808Z,89.46
2017-07-11T00:48:10.403Z,89.55
2017-07-11T00:48:51.037Z,88.79
2017-07-11T00:49:31.598Z,89.26
2017-07-11T00:50:12.179Z,89.55
2017-07-11T00:50:52.746Z,89.36
2017-07-11T00:51:33.310Z,89.36
2017-07-11T00:52:13.893Z,89.84
2017-07-11T00:52:54.470Z,89.94
2017-07-11T00:53:35.074Z,89.75
2017-07-11T00:54:15.654Z,89.55
2017-07-11T00:54:56.219Z,89.26
2017-07-11T00:55:36.796Z,89.26
2017-07-11T00:56:17.363Z,89.07
2017-07-11T00:56:57.936Z,89.55
2017-07-11T00:57:38.507Z,89.36
2017-07-11T00:58:19.083Z,88.98
2017-07-11T00:58:59.651Z,89.17
2017-07-11T00:59:40.257Z,88.98
2017-07-11T01:00:20.846Z,89.17
2017-07-11T01:01:01.442Z,89.36
2017-07-11T01:01:42.037Z,89.36
2017-07-11T01:02:22.668Z,89.55
2017-07-11T01:03:03.158Z,89.55
2017-07-11T01:03:43.722Z,89.36
2017-07-11T01:04:24.312Z,89.36
2017-07-11T01:05:04.922Z,88.88
2017-07-11T01:05:45.521Z,88.88
2017-07-11T01:06:26.083Z,88.69
2017-07-11T01:07:06.676Z,88.69
2017-07-11T01:07:47.275Z,88.69
2017-07-11T01:08:27.847Z,89.17
2017-07-11T01:09:08.445Z,88.88
2017-07-11T01:09:49.027Z,88.69
2017-07-11T01:10:29.608Z,88.98
2017-07-11T01:11:10.191Z,89.07
2017-07-11T01:11:50.753Z,88.69
2017-07-11T01:12:31.361Z,89.17
2017-07-11T01:13:11.925Z,88.88
2017-07-11T01:13:52.509Z,89.36
2017-07-11T01:14:33.118Z,89.26
2017-07-11T01:15:13.696Z,89.36
2017-07-11T01:15:54.270Z,89.55
2017-07-11T01:16:34.860Z,89.75
2017-07-11T01:17:15.498Z,89.26
2017-07-11T01:17:56.067Z,89.84
2017-07-11T01:18:36.658Z,89.55
2017-07-11T01:19:17.239Z,88.88
2017-07-11T01:19:57.819Z,88.69
2017-07-11T01:20:38.424Z,88.59
2017-07-11T01:21:19.011Z,88.21
2017-07-11T01:21:59.575Z,88.31
2017-07-11T01:22:40.179Z,88.31
2017-07-11T01:23:20.737Z,88.59
2017-07-11T01:24:01.322Z,88.31
2017-07-11T01:24:41.929Z,87.82
2017-07-11T01:25:22.544Z,87.82
2017-07-11T01:26:03.125Z,87.82
2017-07-11T01:26:43.689Z,87.92
2017-07-11T01:27:24.303Z,88.31
2017-07-11T01:28:04.894Z,87.82
2017-07-11T01:28:45.454Z,88.02
2017-07-11T01:29:26.024Z,88.02
2017-07-11T01:30:06.617Z,87.92
2017-07-11T01:30:47.210Z,87.73
2017-07-11T01:31:27.812Z,87.82
2017-07-11T01:32:08.397Z,87.82
2017-07-11T01:32:49.045Z,88.4
2017-07-11T01:33:29.620Z,87.92
2017-07-11T01:34:10.212Z,87.82
2017-07-11T01:34:50.792Z,88.02
2017-07-11T01:35:31.383Z,87.82
2017-07-11T01:36:11.984Z,87.82
2017-07-11T01:36:52.576Z,87.82
2017-07-11T01:37:33.244Z,88.02
2017-07-11T01:38:13.832Z,88.11
2017-07-11T01:38:54.491Z,87.82
2017-07-11T01:39:35.085Z,87.92
2017-07-11T01:40:15.722Z,88.11
2017-07-11T01:40:56.300Z,87.82
2017-07-11T01:41:36.880Z,87.54
2017-07-11T01:42:17.551Z,87.54
2017-07-11T01:42:58.139Z,88.11
2017-07-11T01:43:38.714Z,88.02
2017-07-11T01:44:19.270Z,88.02
2017-07-11T01:44:59.861Z,87.82
2017-07-11T01:45:40.437Z,87.54
2017-07-11T01:46:21.018Z,87.82
2017-07-11T01:47:01.614Z,87.73
2017-07-11T01:47:42.222Z,87.82
2017-07-11T01:48:22.819Z,87.82
2017-07-11T01:49:03.401Z,87.44
2017-07-11T01:49:43.983Z,87.25
2017-07-11T01:50:24.581Z,87.15
2017-07-11T01:51:05.160Z,87.54
2017-07-11T01:51:45.732Z,87.59
2017-07-11T01:52:26.304Z,87.21
2017-07-11T01:53:06.894Z,86.63
2017-07-11T01:53:47.476Z,86.82
2017-07-11T01:54:28.053Z,86.82
2017-07-11T01:55:08.638Z,86.15
2017-07-11T01:55:49.257Z,85.58
2017-07-11T01:56:29.895Z,86.44
2017-07-11T01:57:10.433Z,86.54
2017-07-11T01:57:51.056Z,86.92
2017-07-11T01:58:31.637Z,86.82
2017-07-11T01:59:12.205Z,86.44
2017-07-11T01:59:52.781Z,86.15
2017-07-11T02:00:33.406Z,86.15
2017-07-11T02:01:13.997Z,86.63
2017-07-11T02:01:54.572Z,86.63
2017-07-11T02:02:35.158Z,86.92
2017-07-11T02:03:15.733Z,86.82
2017-07-11T02:03:56.320Z,86.72
2017-07-11T02:04:36.886Z,86.44
2017-07-11T02:05:17.454Z,86.25
2017-07-11T02:05:58.040Z,86.44
2017-07-11T02:06:38.612Z,86.25
2017-07-11T02:07:19.173Z,86.15
2017-07-11T02:07:59.763Z,86.15
2017-07-11T02:08:40.333Z,86.72
2017-07-11T02:09:20.913Z,86.72
2017-07-11T02:10:01.482Z,86.82
2017-07-11T02:10:42.071Z,86.82
2017-07-11T02:11:22.636Z,86.92
2017-07-11T02:12:03.238Z,86.72
2017-07-11T02:12:43.821Z,86.63
2017-07-11T02:13:24.383Z,86.63
2017-07-11T02:14:04.974Z,86.63
2017-07-11T02:14:45.560Z,86.92
2017-07-11T02:15:26.139Z,87.01
2017-07-11T02:16:07.096Z,86.05
2017-07-11T02:16:47.684Z,86.92
2017-07-11T02:17:28.256Z,87.01
2017-07-11T02:18:08.851Z,87.01
2017-07-11T02:18:49.426Z,87.01
2017-07-11T02:19:30.033Z,86.72
2017-07-11T02:20:10.606Z,87.01
2017-07-11T02:20:51.203Z,87.01
2017-07-11T02:21:31.781Z,86.92
2017-07-11T02:22:12.351Z,87.01
2017-07-11T02:22:52.930Z,86.92
2017-07-11T02:23:33.497Z,86.44
2017-07-11T02:24:14.072Z,86.63
2017-07-11T02:24:54.641Z,86.92
2017-07-11T02:25:35.217Z,86.63
2017-07-11T02:26:15.780Z,86.92
2017-07-11T02:26:56.383Z,86.92
2017-07-11T02:27:37.076Z,87.01
2017-07-11T02:28:17.645Z,86.92
2017-07-11T02:28:58.411Z,86.72
2017-07-11T02:29:38.993Z,86.05
2017-07-11T02:30:19.565Z,86.15
2017-07-11T02:31:00.135Z,86.44
2017-07-11T02:31:40.940Z,86.21
2017-07-11T02:32:21.470Z,86.11
2017-07-11T02:33:02.057Z,86.01
2017-07-11T02:33:42.810Z,86.01
2017-07-11T02:34:23.414Z,86.15
2017-07-11T02:35:03.983Z,86.34
2017-07-11T02:35:44.629Z,86.3
2017-07-11T02:36:25.203Z,86.34
2017-07-11T02:37:05.789Z,86.11
2017-07-11T02:37:46.382Z,86.4
2017-07-11T02:38:26.965Z,85.96
2017-07-11T02:39:07.984Z,85.86
2017-07-11T02:39:48.557Z,85.92
2017-07-11T02:40:29.125Z,85.72
2017-07-11T02:41:09.684Z,85.86
2017-07-11T02:41:50.250Z,85.48
2017-07-11T02:42:30.840Z,85.86
2017-07-11T02:43:11.414Z,85.63
2017-07-11T02:43:52.118Z,85.48
2017-07-11T02:44:32.705Z,85.48
2017-07-11T02:45:13.290Z,85.34
2017-07-11T02:45:53.869Z,85.63
2017-07-11T02:46:34.454Z,85.1
2017-07-11T02:47:15.024Z,84.91
2017-07-11T02:47:55.612Z,84.71
2017-07-11T02:48:37.139Z,84.38
2017-07-11T02:49:17.172Z,84.28
2017-07-11T02:49:57.829Z,83.91
2017-07-11T02:50:38.425Z,83.42
2017-07-11T02:51:19.023Z,83.61
2017-07-11T02:51:59.573Z,82.65
2017-07-11T02:52:40.146Z,82.08
2017-07-11T02:53:20.739Z,81.79
2017-07-11T02:54:01.312Z,82.56
2017-07-11T02:54:41.911Z,82.27
2017-07-11T02:55:22.472Z,81.79
2017-07-11T02:56:03.203Z,82.37
2017-07-11T02:56:43.881Z,82.65
2017-07-11T02:57:24.473Z,82.94
2017-07-11T02:58:05.072Z,82.81
2017-07-11T02:58:45.648Z,82.9
2017-07-11T02:59:26.254Z,82.9
2017-07-11T03:00:06.831Z,82.81
2017-07-11T03:00:47.416Z,82.85
2017-07-11T03:01:27.993Z,83.09
2017-07-11T03:02:08.563Z,83.48
2017-07-11T03:02:49.159Z,83.19
2017-07-11T03:03:29.726Z,83.38
2017-07-11T03:04:10.308Z,83.09
2017-07-11T03:04:50.867Z,83.38
2017-07-11T03:05:31.446Z,83.09
2017-07-11T03:06:12.033Z,83.48
2017-07-11T03:06:52.601Z,82.71
2017-07-11T03:07:33.176Z,83.48
2017-07-11T03:08:13.748Z,83.67
2017-07-11T03:08:54.325Z,83.38
2017-07-11T03:09:34.914Z,83.38
2017-07-11T03:10:15.505Z,83.38
2017-07-11T03:10:56.084Z,83.19
2017-07-11T03:11:36.673Z,82.71
2017-07-11T03:12:17.523Z,83.58
2017-07-11T03:12:58.086Z,83.58
2017-07-11T03:13:38.659Z,83.86
2017-07-11T03:14:19.239Z,83.95
2017-07-11T03:14:59.820Z,84.53
2017-07-11T03:15:40.386Z,84.25
2017-07-11T03:16:20.952Z,85.01
2017-07-11T03:17:01.519Z,84.44
2017-07-11T03:17:42.101Z,84.63
2017-07-11T03:18:22.683Z,84.53
2017-07-11T03:19:03.595Z,84.34
2017-07-11T03:19:44.170Z,84.05
2017-07-11T03:20:24.869Z,84.15
2017-07-11T03:21:05.439Z,84.34
2017-07-11T03:21:46.011Z,84.44
2017-07-11T03:22:26.589Z,84.34
2017-07-11T03:23:07.157Z,84.15
2017-07-11T03:23:47.717Z,84.15
2017-07-11T03:24:28.301Z,84.25
2017-07-11T03:25:08.888Z,84.05
2017-07-11T03:25:49.483Z,84.15
2017-07-11T03:26:30.063Z,84.15
2017-07-11T03:27:10.619Z,84.05
2017-07-11T03:27:51.244Z,84.25
2017-07-11T03:28:31.808Z,83.95
2017-07-11T03:29:12.386Z,84.25
2017-07-11T03:29:53.053Z,84.34
2017-07-11T03:30:33.682Z,84.25
2017-07-11T03:31:14.246Z,84.44
2017-07-11T03:31:54.831Z,84.44
2017-07-11T03:32:35.411Z,84.44
2017-07-11T03:33:15.982Z,84.53
2017-07-11T03:33:56.562Z,84.91
2017-07-11T03:34:37.157Z,85.11
2017-07-11T03:35:17.730Z,85.11
2017-07-11T03:35:58.319Z,85.11
2017-07-11T03:36:38.887Z,85.21
2017-07-11T03:37:19.459Z,84.82
2017-07-11T03:38:00.030Z,85.11
2017-07-11T03:38:40.598Z,84.44
2017-07-11T03:39:21.194Z,84.44
2017-07-11T03:40:01.812Z,84.34
2017-07-11T03:40:42.387Z,84.91
2017-07-11T03:41:23.036Z,84.82
2017-07-11T03:42:03.598Z,85.01
2017-07-11T03:42:44.173Z,85.21
2017-07-11T03:43:24.801Z,84.91
2017-07-11T03:44:05.362Z,84.72
2017-07-11T03:44:45.932Z,85.11
2017-07-11T03:45:26.484Z,84.91
2017-07-11T03:46:07.051Z,85.21
2017-07-11T03:46:47.616Z,85.21
2017-07-11T03:47:28.193Z,85.11
2017-07-11T03:48:08.813Z,84.91
2017-07-11T03:48:49.365Z,85.11
2017-07-11T03:49:29.935Z,85.01
2017-07-11T03:50:10.512Z,84.53
2017-07-11T03:50:51.076Z,84.44
2017-07-11T03:51:31.646Z,84.34
2017-07-11T03:52:12.226Z,84.25
2017-07-11T03:52:52.797Z,85.01
2017-07-11T03:53:33.393Z,84.63
2017-07-11T03:54:13.953Z,84.25
2017-07-11T03:54:54.521Z,84.44
2017-07-11T03:55:35.084Z,84.91
2017-07-11T03:56:15.637Z,85.01
2017-07-11T03:56:56.223Z,84.82
2017-07-11T03:57:36.835Z,85.11
2017-07-11T03:58:17.423Z,84.91
2017-07-11T03:58:58.101Z,85.01
2017-07-11T03:59:38.674Z,85.3
2017-07-11T04:00:19.244Z,85.11
2017-07-11T04:00:59.888Z,85.3
2017-07-11T04:01:40.448Z,85.49
2017-07-11T04:02:21.012Z,85.78
2017-07-11T04:03:01.601Z,85.78
2017-07-11T04:03:42.255Z,85.58
2017-07-11T04:04:22.831Z,85.68
2017-07-11T04:05:03.445Z,85.78
2017-07-11T04:05:44.018Z,85.88
2017-07-11T04:06:24.684Z,85.88
2017-07-11T04:07:05.251Z,85.58
2017-07-11T04:07:45.816Z,85.88
2017-07-11T04:08:26.389Z,85.58
2017-07-11T04:09:06.960Z,85.88
2017-07-11T04:09:47.633Z,85.25
2017-07-11T04:10:28.199Z,85.3
2017-07-11T04:11:08.780Z,85.49
2017-07-11T04:11:49.350Z,85.78
2017-07-11T04:12:29.944Z,85.82
2017-07-11T04:13:10.515Z,85.78
2017-07-11T04:13:51.075Z,85.63
2017-07-11T04:14:31.826Z,85.63
2017-07-11T04:15:12.416Z,85.58
2017-07-11T04:15:52.987Z,85.82
2017-07-11T04:16:33.559Z,85.72
2017-07-11T04:17:14.168Z,85.44
2017-07-11T04:17:54.736Z,85.53
2017-07-11T04:18:35.304Z,85.53
2017-07-11T04:19:15.861Z,85.44
2017-07-11T04:19:56.421Z,84.95
2017-07-11T04:20:36.995Z,84.95
2017-07-11T04:21:17.570Z,84.95
2017-07-11T04:21:58.174Z,85.15
2017-07-11T04:22:38.844Z,85.34
2017-07-11T04:23:19.395Z,85.25
2017-07-11T04:23:59.989Z,84.95
2017-07-11T04:24:40.558Z,84.95
2017-07-11T04:25:21.117Z,85.05
2017-07-11T04:26:01.704Z,84.58
2017-07-11T04:26:42.256Z,84.09
2017-07-11T04:27:22.977Z,84.19
2017-07-11T04:28:03.540Z,83.91
2017-07-11T04:28:44.121Z,84.28
2017-07-11T04:29:24.691Z,83.91
2017-07-11T04:30:05.252Z,84.09
2017-07-11T04:30:45.821Z,84
2017-07-11T04:31:26.404Z,83.91
2017-07-11T04:32:06.967Z,84.09
2017-07-11T04:32:47.542Z,84.48
2017-07-11T04:33:28.103Z,84.58
2017-07-11T04:34:08.670Z,84.48
2017-07-11T04:34:49.236Z,84.67
2017-07-11T04:35:29.872Z,84.95
2017-07-11T04:36:10.465Z,84.58
2017-07-11T04:36:51.052Z,85.05
2017-07-11T04:37:31.624Z,85.05
2017-07-11T04:38:12.180Z,85.05
2017-07-11T04:38:53.698Z,84.48
2017-07-11T04:39:34.266Z,84.58
2017-07-11T04:40:14.834Z,84.38
2017-07-11T04:40:55.416Z,83.71
2017-07-11T04:41:35.990Z,84.38
2017-07-11T04:42:16.671Z,83.42
2017-07-11T04:42:57.232Z,83.42
2017-07-11T04:43:37.794Z,83.14
2017-07-11T04:44:18.373Z,83.14
2017-07-11T04:44:58.942Z,83.81
2017-07-11T04:45:39.540Z,83.23
2017-07-11T04:46:20.125Z,82.75
2017-07-11T04:47:00.692Z,83.33
2017-07-11T04:47:41.256Z,83.23
2017-07-11T04:48:21.831Z,83.71
2017-07-11T04:49:02.416Z,83.71
2017-07-11T04:49:43.013Z,82.75
2017-07-11T04:50:23.597Z,83.42
2017-07-11T04:51:04.186Z,83.61
2017-07-11T04:51:44.759Z,83.33
2017-07-11T04:52:25.349Z,83.71
2017-07-11T04:53:05.916Z,83.52
2017-07-11T04:53:46.518Z,83.52
2017-07-11T04:54:27.105Z,83.14
2017-07-11T04:55:07.659Z,83.33
2017-07-11T04:55:48.236Z,83.71
2017-07-11T04:56:28.804Z,83.14
2017-07-11T04:57:09.371Z,83.71
2017-07-11T04:57:49.960Z,83.71
2017-07-11T04:58:30.587Z,83.33
2017-07-11T04:59:11.163Z,83.52
2017-07-11T04:59:51.740Z,83.33
2017-07-11T05:00:32.383Z,83.52
2017-07-11T05:01:13.091Z,83.23
2017-07-11T05:01:53.658Z,83.23
2017-07-11T05:02:34.228Z,83.33
2017-07-11T05:03:14.824Z,83.23
2017-07-11T05:03:55.465Z,83.61
2017-07-11T05:04:36.042Z,83.71
2017-07-11T05:05:16.704Z,83.04
2017-07-11T05:05:57.252Z,83.81
2017-07-11T05:06:37.836Z,83.14
2017-07-11T05:07:18.411Z,83.61
2017-07-11T05:07:59.004Z,83.71
2017-07-11T05:08:39.595Z,83.52
2017-07-11T05:09:20.176Z,83.04
2017-07-11T05:10:00.757Z,83.04
2017-07-11T05:10:41.345Z,83.14
2017-07-11T05:12:39.286Z,82.94
2017-07-11T05:13:19.863Z,82.27
2017-07-11T05:14:00.487Z,81.79
2017-07-11T05:14:41.030Z,82.46
2017-07-11T05:15:21.598Z,82.65
2017-07-11T05:16:02.174Z,82.27
2017-07-11T05:16:42.744Z,83.23
2017-07-11T05:17:23.311Z,82.65
2017-07-11T05:18:03.877Z,82.94
2017-07-11T05:18:44.523Z,83.08
2017-07-11T05:19:25.195Z,83.14
2017-07-11T05:20:06.068Z,83.23
2017-07-11T05:20:46.646Z,82.89
2017-07-11T05:21:27.224Z,83.18
2017-07-11T05:22:07.839Z,83.47
2017-07-11T05:22:48.407Z,83.18
2017-07-11T05:23:28.991Z,83.47
2017-07-11T05:24:09.570Z,83.08
2017-07-11T05:24:50.134Z,83.18
2017-07-11T05:25:30.719Z,82.27
2017-07-11T05:26:11.277Z,82.21
2017-07-11T05:26:51.835Z,82.31
2017-07-11T05:27:32.404Z,82.98
2017-07-11T05:28:12.973Z,83.08
2017-07-11T05:28:53.554Z,84.14
2017-07-11T05:29:34.115Z,83.94
2017-07-11T05:30:14.695Z,83.65
2017-07-11T05:30:55.276Z,83.18
2017-07-11T05:31:35.863Z,83.47
2017-07-11T05:32:16.429Z,83.65
2017-07-11T05:32:56.995Z,83.75
2017-07-11T05:33:37.566Z,83.47
2017-07-11T05:34:18.155Z,82.64
2017-07-11T05:34:58.767Z,81.1
2017-07-11T05:35:39.399Z,82.74
2017-07-11T05:36:19.980Z,82.64
2017-07-11T05:37:00.569Z,82.07
2017-07-11T05:37:41.155Z,81.2
2017-07-11T05:38:21.776Z,79.76
2017-07-11T05:39:02.341Z,78.61
2017-07-11T05:39:42.939Z,77.75
2017-07-11T05:40:23.507Z,78.03
2017-07-11T05:41:04.074Z,77.9
2017-07-11T05:41:44.645Z,78.57
2017-07-11T05:42:25.256Z,78.28
2017-07-11T05:43:05.863Z,78.77
2017-07-11T05:43:46.467Z,78.67
2017-07-11T05:44:27.037Z,78.67
2017-07-11T05:45:07.618Z,77.71
2017-07-11T05:45:48.153Z,77.71
2017-07-11T05:46:28.731Z,78.67
2017-07-11T05:47:09.302Z,78.57
2017-07-11T05:47:49.866Z,78.77
2017-07-11T05:48:30.447Z,78.67
2017-07-11T05:49:11.033Z,79.82
2017-07-11T05:49:51.605Z,80.01
2017-07-11T05:50:32.182Z,81.45
2017-07-11T05:51:12.755Z,81.74
2017-07-11T05:51:53.383Z,80.11
2017-07-11T05:52:33.952Z,80.01
2017-07-11T05:53:14.573Z,80.01
2017-07-11T05:53:55.164Z,78.77
2017-07-11T05:54:35.812Z,78.67
2017-07-11T05:55:16.415Z,79.47
2017-07-11T05:55:56.998Z,78.96
2017-07-11T05:56:37.824Z,79.96
2017-07-11T05:57:18.419Z,80.73
2017-07-11T05:57:59.000Z,80.91
2017-07-11T05:58:39.577Z,80.91
2017-07-11T05:59:20.143Z,80.34
2017-07-11T06:00:01.277Z,80.24
2017-07-11T06:00:42.926Z,78.9
2017-07-11T06:01:23.815Z,78.13
2017-07-11T06:02:04.479Z,77.21
2017-07-11T06:02:45.067Z,77.69
2017-07-11T06:03:25.676Z,77.4
2017-07-11T06:04:06.373Z,75.96
2017-07-11T06:04:46.993Z,75.67
2017-07-11T06:05:27.561Z,76.79
2017-07-11T06:06:08.662Z,77.65
2017-07-11T06:06:49.638Z,79.52
2017-07-11T06:07:30.405Z,79.22
2017-07-11T06:08:11.023Z,78.75
2017-07-11T06:08:51.658Z,77.98
2017-07-11T06:09:32.222Z,78.65
2017-07-11T06:10:12.834Z,78.45
2017-07-11T06:10:53.448Z,78.59
2017-07-11T06:11:34.023Z,78.78
2017-07-11T06:12:14.595Z,78.69
2017-07-11T06:12:55.198Z,77.92
2017-07-11T06:13:36.552Z,76.77
2017-07-11T06:14:17.148Z,76.48
2017-07-11T06:14:57.706Z,76.19
2017-07-11T06:15:38.306Z,77.06
2017-07-11T06:16:19.054Z,77.34
2017-07-11T06:16:59.666Z,77.06
2017-07-11T06:17:40.242Z,75.81
2017-07-11T06:18:20.864Z,75.23
2017-07-11T06:19:01.470Z,76.09
2017-07-11T06:19:42.052Z,76.67
2017-07-11T06:20:22.648Z,76.67
2017-07-11T06:21:03.210Z,76.57
2017-07-11T06:21:43.786Z,75.52
2017-07-11T06:22:24.387Z,75.23
2017-07-11T06:23:04.979Z,74.46
2017-07-11T06:23:45.615Z,75.52
2017-07-11T06:24:26.205Z,75.32
2017-07-11T06:25:06.775Z,74.85
2017-07-11T06:25:47.341Z,75.42
2017-07-11T06:26:27.935Z,75.81
2017-07-11T06:27:08.534Z,75.04
2017-07-11T06:27:49.090Z,74.94
2017-07-11T06:28:29.664Z,75.81
2017-07-11T06:29:10.241Z,76.57
2017-07-11T06:29:50.843Z,76.39
2017-07-11T06:30:31.455Z,76.39
2017-07-11T06:31:12.068Z,76.96
2017-07-11T06:31:52.652Z,77.06
2017-07-11T06:32:33.335Z,77.15
2017-07-11T06:33:13.939Z,76.52
2017-07-11T06:33:54.523Z,76.61
2017-07-11T06:34:35.098Z,76.23
2017-07-11T06:35:15.713Z,75.84
2017-07-11T06:35:56.295Z,75.56
2017-07-11T06:36:36.885Z,75.37
2017-07-11T06:37:17.486Z,75.27
2017-07-11T06:37:58.042Z,75.4
2017-07-11T06:38:38.612Z,75.49
2017-07-11T06:39:19.186Z,75.59
2017-07-11T06:39:59.811Z,75.49
2017-07-11T06:40:40.391Z,73.19
2017-07-11T06:41:20.956Z,71.46
2017-07-11T06:42:01.526Z,71.36
2017-07-11T06:42:42.110Z,70.68
2017-07-11T06:43:22.753Z,70.5
2017-07-11T06:44:03.341Z,71.81
2017-07-11T06:44:43.916Z,73.28
2017-07-11T06:45:24.483Z,73.44
2017-07-11T06:46:05.062Z,72.8
2017-07-11T06:46:45.659Z,73.28
2017-07-11T06:47:26.241Z,74.92
2017-07-11T06:48:06.849Z,73.28
2017-07-11T06:48:47.475Z,73.57
2017-07-11T06:49:28.139Z,73.19
2017-07-11T06:50:08.764Z,73
2017-07-11T06:50:49.337Z,72.52
2017-07-11T06:51:29.913Z,72.13
2017-07-11T06:52:10.513Z,71.65
2017-07-11T06:52:51.100Z,71.94
2017-07-11T06:53:31.684Z,72.84
2017-07-11T06:54:12.249Z,73.13
2017-07-11T06:54:52.842Z,70.59
2017-07-11T06:55:33.426Z,70.82
2017-07-11T06:56:13.986Z,71.69
2017-07-11T06:56:54.626Z,72.94
2017-07-11T06:57:35.235Z,72.74
2017-07-11T06:58:15.806Z,71.4
2017-07-11T06:58:56.425Z,72.07
2017-07-11T06:59:37.037Z,72.17
2017-07-11T07:00:17.597Z,73.22
2017-07-11T07:00:58.172Z,72.84
2017-07-11T07:01:38.746Z,71.97
2017-07-11T07:02:19.343Z,72.26
2017-07-11T07:02:59.933Z,71.97
2017-07-11T07:03:40.504Z,72.55
2017-07-11T07:04:21.070Z,73.32
2017-07-11T07:05:01.640Z,72.94
2017-07-11T07:05:42.261Z,72.39
2017-07-11T07:06:22.985Z,72.17
2017-07-11T07:07:03.579Z,71.53
2017-07-11T07:07:44.170Z,70.37
2017-07-11T07:08:24.750Z,70.56
2017-07-11T07:09:05.333Z,71.04
2017-07-11T07:09:45.914Z,71.72
2017-07-11T07:10:26.503Z,71.04
2017-07-11T07:11:07.125Z,70.86
2017-07-11T07:11:47.707Z,69.79
2017-07-11T07:12:28.289Z,69.7
2017-07-11T07:13:08.860Z,70.28
2017-07-11T07:13:49.437Z,70.82
2017-07-11T07:14:30.055Z,70.72
2017-07-11T07:15:10.647Z,70.62
2017-07-11T07:15:51.229Z,71.4
2017-07-11T07:16:31.838Z,71.62
2017-07-11T07:17:12.400Z,71.34
2017-07-11T07:17:52.988Z,70.95
2017-07-11T07:18:33.549Z,70.66
2017-07-11T07:19:14.125Z,70.47
2017-07-11T07:19:54.700Z,69.41
2017-07-11T07:20:35.271Z,68.77
2017-07-11T07:21:15.888Z,67.9
2017-07-11T07:21:56.471Z,67.71
2017-07-11T07:22:37.054Z,68.38
2017-07-11T07:23:18.082Z,69.25
2017-07-11T07:23:58.649Z,68.96
2017-07-11T07:24:39.224Z,69.45
2017-07-11T07:25:19.804Z,69.45
2017-07-11T07:26:00.379Z,70.15
2017-07-11T07:26:40.942Z,71.79
2017-07-11T07:27:21.695Z,71.79
2017-07-11T07:28:02.343Z,70.25
2017-07-11T07:28:42.943Z,68.9
2017-07-11T07:29:23.519Z,68.26
2017-07-11T07:30:04.093Z,68.35
2017-07-11T07:30:44.673Z,67.4
2017-07-11T07:31:25.268Z,67.1
2017-07-11T07:32:05.882Z,69.51
2017-07-11T07:32:46.483Z,68.74
2017-07-11T07:33:27.110Z,69.51
2017-07-11T07:34:07.722Z,69.13
2017-07-11T07:34:48.375Z,70.51
2017-07-11T07:35:28.994Z,68.97
2017-07-11T07:36:09.574Z,68.39
2017-07-11T07:36:50.148Z,67.04
2017-07-11T07:37:30.716Z,66.94
2017-07-11T07:38:11.343Z,66.85
2017-07-11T07:38:51.932Z,66.46
2017-07-11T07:39:32.509Z,65.78
2017-07-11T07:40:13.098Z,66.56
2017-07-11T07:40:53.662Z,67.52
2017-07-11T07:41:34.301Z,67.46
2017-07-11T07:42:14.979Z,67.65
2017-07-11T07:42:55.544Z,66.59
2017-07-11T07:43:36.185Z,65.34
2017-07-11T07:44:16.782Z,65.24
2017-07-11T07:44:57.372Z,64.76
2017-07-11T07:45:37.952Z,66.11
2017-07-11T07:46:18.599Z,65.43
2017-07-11T07:46:59.249Z,65.47
2017-07-11T07:47:39.831Z,65.08
2017-07-11T07:48:20.407Z,65.47
2017-07-11T07:49:00.990Z,64.5
2017-07-11T07:49:41.561Z,64.5
2017-07-11T07:50:22.185Z,62.76
2017-07-11T07:51:02.841Z,59.67
2017-07-11T07:51:43.434Z,56.77
2017-07-11T07:52:24.042Z,59.48
2017-07-11T07:53:04.639Z,61.31
2017-07-11T07:53:45.248Z,60.93
2017-07-11T07:54:25.831Z,60.71
2017-07-11T07:55:06.404Z,62.54
2017-07-11T07:55:47.007Z,63.12
2017-07-11T07:56:27.576Z,63.21
2017-07-11T07:57:08.159Z,63.02
2017-07-11T07:57:48.755Z,63.82
2017-07-11T07:58:29.331Z,63.63
2017-07-11T07:59:09.884Z,64.89
2017-07-11T07:59:50.502Z,63.82
2017-07-11T08:00:31.084Z,63.82
2017-07-11T08:01:11.695Z,62.37
2017-07-11T08:01:52.300Z,62.18
2017-07-11T08:02:32.889Z,60.64
2017-07-11T08:03:13.466Z,61.31
2017-07-11T08:03:54.041Z,63.43
2017-07-11T08:04:34.627Z,62.66
2017-07-11T08:05:15.200Z,62.86
2017-07-11T08:05:55.811Z,64.69
2017-07-11T08:06:36.403Z,63.73
2017-07-11T08:07:17.011Z,63.34
2017-07-11T08:07:57.618Z,63.56
2017-07-11T08:08:38.244Z,65.2
2017-07-11T08:09:18.853Z,63.56
2017-07-11T08:09:59.416Z,62.4
2017-07-11T08:10:40.003Z,61.83
2017-07-11T08:11:20.584Z,63.47
2017-07-11T08:12:01.203Z,63.95
2017-07-11T08:12:41.779Z,64.14
2017-07-11T08:13:22.392Z,63.37
2017-07-11T08:14:03.032Z,63.08
2017-07-11T08:14:43.644Z,63.4
2017-07-11T08:15:24.245Z,62.82
2017-07-11T08:16:04.843Z,61.66
2017-07-11T08:16:45.430Z,60.11
2017-07-11T08:17:26.023Z,60.02
2017-07-11T08:18:06.599Z,62.63
2017-07-11T08:18:47.189Z,62.92
2017-07-11T08:19:27.780Z,62.82
2017-07-11T08:20:08.360Z,61.76
2017-07-11T08:20:48.945Z,62.44
2017-07-11T08:21:29.528Z,61.57
2017-07-11T08:22:10.117Z,60.11
2017-07-11T08:22:50.730Z,59.92
2017-07-11T08:23:31.346Z,59.41
2017-07-11T08:24:11.916Z,60.38
2017-07-11T08:24:52.510Z,59.7
2017-07-11T08:25:33.076Z,59.8
2017-07-11T08:26:13.695Z,61.34
2017-07-11T08:26:54.267Z,62.12
2017-07-11T08:27:34.850Z,61.15
2017-07-11T08:28:15.465Z,61.05
2017-07-11T08:28:56.028Z,62.89
2017-07-11T08:29:36.600Z,63.47
2017-07-11T08:30:17.704Z,64.05
2017-07-11T08:30:58.265Z,64.24
2017-07-11T08:31:38.842Z,64.14
2017-07-11T08:32:19.423Z,63.47
2017-07-11T08:32:59.999Z,63.56
2017-07-11T08:33:40.562Z,62.6
2017-07-11T08:34:21.166Z,63.08
2017-07-11T08:35:01.765Z,62.21
2017-07-11T08:35:42.335Z,62.21
2017-07-11T08:36:22.916Z,61.54
2017-07-11T08:37:03.484Z,62.4
2017-07-11T08:37:44.057Z,62.79
2017-07-11T08:38:24.631Z,63.47
2017-07-11T08:39:05.210Z,63.56
2017-07-11T08:39:45.809Z,62.79
2017-07-11T08:40:26.420Z,62.6
2017-07-11T08:41:07.035Z,63.28
2017-07-11T08:41:47.613Z,63.47
2017-07-11T08:42:28.192Z,61.63
2017-07-11T08:43:08.776Z,60.67
2017-07-11T08:43:49.376Z,60.09
2017-07-11T08:44:29.969Z,60.38
2017-07-11T08:45:10.605Z,61.05